Ira, Michigan
Current Conditions -  °F | °C
As of 10:55 AM on Wednesday 22 Oct 2014 (Local Time) from KMTC Reporting Station
Few Clouds Few Clouds  
Wind Chill: 50°   Ceiling: Unl
Heat Index: 50°   Visibility: 12mi
Dew Point: 40°   Wind: 10mph
Humidity: 69%   Direction: 10°N
Pressure: 30.31"   Gusts: NA
Location:  42.7011°N, 82.659°W
Report Text: KMTC 221455Z 01009KT 12SM FEW025 10/05 A3031 RMK SLP274 T01000046 51014
Loading
Personal Weather Stations






























Interactive Weather Map
Tropical Storm Tracking
New forecast layout! Learn more

10-Day Weather Forecast

Advertisements
Track Severe Weather on mobile